Time;durP1;ratioP1;P1;durP2;ratioP2;P2;SDS_P1;SDS_P2;PMS_P1;PMS_P2;Temp;Humidity;BMP_temperature;BMP_pressure;BME280_temperature;BME280_humidity;BME280_pressure;Samples;Min_cycle;Max_cycle;Signal;HPM_P1;HPM_P2
2023/09/04 00:00:28;;;;;;;3.40;3.03;;;;;;;20.95;58.82;98445.75;5081499;28;20178;-72
2023/09/04 00:02:53;;;;;;;3.67;3.33;;;;;;;20.91;59.00;98452.50;5085594;28;20414;-73
2023/09/04 00:05:19;;;;;;;5.57;3.73;;;;;;;20.85;59.37;98453.25;5080792;28;20660;-72
2023/09/04 00:07:45;;;;;;;3.37;2.87;;;;;;;20.79;59.22;98443.34;5079754;28;20174;-72
2023/09/04 00:10:11;;;;;;;5.13;3.03;;;;;;;20.75;59.78;98444.75;5081940;28;20261;-73
2023/09/04 00:12:36;;;;;;;14.23;3.60;;;;;;;20.62;60.25;98432.88;5082226;28;20187;-71
2023/09/04 00:15:02;;;;;;;4.90;3.27;;;;;;;20.64;59.98;98438.00;5082545;28;20542;-73
2023/09/04 00:17:28;;;;;;;4.67;3.20;;;;;;;20.66;60.27;98439.50;5086993;28;20208;-76
2023/09/04 00:19:53;;;;;;;4.20;3.90;;;;;;;20.68;59.95;98434.78;5082398;28;20419;-75
2023/09/04 00:22:19;;;;;;;11.13;4.57;;;;;;;20.69;59.78;98430.31;5088964;28;20261;-74
2023/09/04 00:24:45;;;;;;;3.80;3.33;;;;;;;20.69;59.79;98428.44;5072678;28;20221;-73
2023/09/04 00:27:10;;;;;;;4.93;3.30;;;;;;;20.67;59.65;98425.16;5084554;28;20174;-73
2023/09/04 00:29:35;;;;;;;4.60;3.47;;;;;;;20.60;59.60;98418.94;5086283;28;20331;-73
2023/09/04 00:32:02;;;;;;;3.53;2.90;;;;;;;20.59;59.41;98419.94;5081523;28;20182;-77
2023/09/04 00:34:28;;;;;;;4.73;3.20;;;;;;;20.59;59.46;98427.13;5081273;28;20195;-74
2023/09/04 00:36:53;;;;;;;4.77;4.07;;;;;;;20.54;59.45;98427.69;5085201;28;20851;-73
2023/09/04 00:39:19;;;;;;;3.40;3.07;;;;;;;20.52;59.77;98414.53;5087742;28;20174;-74
2023/09/04 00:41:45;;;;;;;3.60;2.90;;;;;;;20.53;59.45;98421.50;5081468;28;20231;-74
2023/09/04 00:44:11;;;;;;;5.40;3.20;;;;;;;20.51;59.75;98414.72;5055375;28;20546;-73
2023/09/04 00:46:36;;;;;;;3.50;3.17;;;;;;;20.49;59.80;98416.75;5089545;28;20456;-73
2023/09/04 00:49:02;;;;;;;3.47;3.03;;;;;;;20.47;59.74;98413.44;5063934;28;20181;-73
2023/09/04 00:51:27;;;;;;;4.17;3.13;;;;;;;20.42;59.56;98406.03;5087293;28;20170;-74
2023/09/04 00:53:53;;;;;;;3.83;3.07;;;;;;;20.42;59.61;98412.16;5068140;28;20225;-75
2023/09/04 00:56:19;;;;;;;2.90;2.67;;;;;;;20.30;59.87;98407.50;5078388;28;20685;-73
2023/09/04 00:58:44;;;;;;;3.47;3.17;;;;;;;20.23;59.94;98410.09;5081288;28;20185;-72
2023/09/04 01:01:10;;;;;;;3.70;3.10;;;;;;;20.25;60.22;98405.41;5082152;28;20177;-74
2023/09/04 01:03:35;;;;;;;3.30;3.00;;;;;;;20.22;60.28;98401.28;5063095;28;20194;-75
2023/09/04 01:06:01;;;;;;;7.20;3.47;;;;;;;20.22;60.42;98413.75;5082882;28;20166;-73
2023/09/04 01:08:27;;;;;;;5.33;3.50;;;;;;;20.20;60.18;98405.97;5082170;28;20174;-73
2023/09/04 01:11:22;;;;;;;5.30;3.57;;;;;;;20.21;60.34;98412.09;5066857;28;20561;-74
2023/09/04 01:13:50;;;;;;;3.97;3.57;;;;;;;20.24;60.42;98414.41;5037337;28;20217;-73
2023/09/04 01:16:17;;;;;;;5.60;3.80;;;;;;;20.19;60.54;98411.47;5056806;28;20871;-75
2023/09/04 01:18:43;;;;;;;4.30;3.33;;;;;;;20.18;60.43;98410.66;5060495;28;20449;-74
2023/09/04 01:21:09;;;;;;;3.83;3.43;;;;;;;20.18;59.98;98413.31;5083539;28;21066;-73
2023/09/04 01:23:34;;;;;;;5.00;3.43;;;;;;;20.17;59.84;98408.16;5079588;28;20197;-75
2023/09/04 01:26:11;;;;;;;3.77;3.20;;;;;;;20.13;60.37;98409.56;5083406;28;20547;-73
2023/09/04 01:29:00;;;;;;;3.57;3.27;;;;;;;20.10;60.07;98418.72;5085780;28;20645;-74
2023/09/04 01:31:33;;;;;;;6.30;3.70;;;;;;;20.07;60.47;98411.94;5083456;28;20510;-73
2023/09/04 01:34:08;;;;;;;4.07;3.10;;;;;;;20.05;60.20;98403.28;5065093;28;20432;-74
2023/09/04 01:36:35;;;;;;;3.30;3.00;;;;;;;20.11;60.51;98409.72;5057229;28;20443;-74
2023/09/04 01:39:01;;;;;;;3.03;2.80;;;;;;;20.09;60.11;98401.94;5061320;28;20412;-75
2023/09/04 01:41:27;;;;;;;4.07;3.60;;;;;;;20.12;60.10;98413.22;5089212;28;20420;-76
2023/09/04 01:43:53;;;;;;;3.90;3.47;;;;;;;20.09;60.23;98407.25;5087139;28;20528;-75
2023/09/04 01:46:19;;;;;;;3.90;3.27;;;;;;;20.08;60.13;98405.59;5074947;28;20174;-73
2023/09/04 01:48:45;;;;;;;4.10;3.70;;;;;;;20.04;60.13;98403.50;5080278;28;20902;-75
2023/09/04 01:51:10;;;;;;;3.77;3.17;;;;;;;19.98;60.28;98405.06;5082130;28;20473;-75
2023/09/04 01:53:36;;;;;;;3.17;2.97;;;;;;;19.95;60.14;98400.09;5082267;28;20280;-76
2023/09/04 01:56:01;;;;;;;4.13;3.60;;;;;;;19.86;60.13;98399.34;5074162;28;20183;-76
2023/09/04 01:58:28;;;;;;;3.97;3.20;;;;;;;19.85;60.85;98403.00;5075270;28;20178;-75
2023/09/04 02:00:53;;;;;;;5.43;3.27;;;;;;;19.92;60.77;98411.09;5086591;28;20710;-76
2023/09/04 02:03:19;;;;;;;4.10;3.03;;;;;;;19.91;60.38;98404.16;5085288;28;20573;-75
2023/09/04 02:05:44;;;;;;;6.50;3.23;;;;;;;19.92;60.54;98411.09;5072205;28;20201;-77
2023/09/04 02:08:09;;;;;;;4.87;3.60;;;;;;;19.90;60.22;98403.31;5080113;28;20170;-75
2023/09/04 02:10:35;;;;;;;5.60;3.13;;;;;;;19.87;60.08;98410.84;5088003;28;20669;-74
2023/09/04 02:13:01;;;;;;;3.33;3.00;;;;;;;19.80;60.61;98408.84;5083118;28;20178;-74
2023/09/04 02:15:28;;;;;;;3.50;3.13;;;;;;;19.82;60.26;98410.50;5081842;28;20181;-74
2023/09/04 02:17:53;;;;;;;4.90;3.10;;;;;;;19.79;60.76;98409.06;5081964;28;20213;-75
2023/09/04 02:20:19;;;;;;;4.23;3.10;;;;;;;19.78;60.53;98404.75;5077566;28;20888;-75
2023/09/04 02:22:44;;;;;;;3.90;3.10;;;;;;;19.76;60.19;98402.28;5061801;28;20187;-74
2023/09/04 02:25:10;;;;;;;4.30;3.23;;;;;;;19.75;60.55;98405.94;5083468;28;20240;-74
2023/09/04 02:27:35;;;;;;;3.70;3.40;;;;;;;19.73;60.65;98407.94;5088383;28;20257;-74
2023/09/04 02:30:03;;;;;;;6.63;3.50;;;;;;;19.72;60.95;98400.16;5088183;28;20181;-74
2023/09/04 02:32:29;;;;;;;5.83;3.97;;;;;;;19.71;61.06;98403.81;5074159;28;20797;-72
2023/09/04 02:34:54;;;;;;;3.50;3.20;;;;;;;19.70;60.85;98405.66;5072741;28;20531;-73
2023/09/04 02:37:20;;;;;;;5.13;2.80;;;;;;;19.67;60.85;98392.72;5087101;28;20212;-73
2023/09/04 02:39:45;;;;;;;5.97;3.40;;;;;;;19.64;60.96;98398.41;5073089;28;20222;-73
2023/09/04 02:42:11;;;;;;;3.50;3.03;;;;;;;19.56;61.06;98399.31;5083459;28;20261;-74
2023/09/04 02:44:36;;;;;;;5.67;3.60;;;;;;;19.55;61.29;98396.81;5084263;28;20272;-73
2023/09/04 02:47:02;;;;;;;3.73;3.37;;;;;;;19.57;61.03;98386.84;5061762;28;20819;-74
2023/09/04 02:49:27;;;;;;;6.97;3.60;;;;;;;19.61;60.94;98398.75;5088551;28;20174;-75
2023/09/04 02:51:52;;;;;;;3.50;3.20;;;;;;;19.60;61.15;98391.78;5082968;28;20184;-75
2023/09/04 02:54:18;;;;;;;6.87;5.00;;;;;;;19.56;61.10;98398.47;5079853;28;20655;-74
2023/09/04 02:56:43;;;;;;;4.40;3.40;;;;;;;19.54;61.09;98389.84;5088431;28;20296;-74
2023/09/04 02:59:09;;;;;;;6.37;3.70;;;;;;;19.52;61.16;98383.91;5067536;28;20187;-73
2023/09/04 03:01:35;;;;;;;5.37;3.47;;;;;;;19.51;60.95;98391.03;5060699;28;20687;-76
2023/09/04 03:04:00;;;;;;;4.23;3.80;;;;;;;19.49;61.00;98395.72;5053139;28;20194;-74
2023/09/04 03:06:25;;;;;;;9.63;3.97;;;;;;;19.48;60.80;98394.91;5087972;28;20174;-74
2023/09/04 03:08:51;;;;;;;6.03;3.67;;;;;;;19.51;60.98;98398.22;5086570;28;20174;-75
2023/09/04 03:11:16;;;;;;;4.80;3.70;;;;;;;19.47;60.71;98397.72;5086772;28;20182;-72
2023/09/04 03:13:42;;;;;;;9.10;3.70;;;;;;;19.45;60.72;98395.25;5074775;28;20195;-73
2023/09/04 03:16:07;;;;;;;4.90;3.60;;;;;;;19.42;61.21;98397.44;5084028;28;20176;-73
2023/09/04 03:18:33;;;;;;;4.00;3.67;;;;;;;19.39;60.99;98389.81;5082033;28;20433;-72
2023/09/04 03:21:00;;;;;;;3.67;3.37;;;;;;;19.36;60.78;98384.88;5077300;28;20178;-74
2023/09/04 03:23:26;;;;;;;4.23;3.33;;;;;;;19.36;60.95;98384.88;5074475;28;20198;-74
2023/09/04 03:25:51;;;;;;;5.00;3.43;;;;;;;19.29;61.09;98388.25;5086328;28;20469;-73
2023/09/04 03:28:16;;;;;;;3.37;3.17;;;;;;;19.27;61.24;98392.09;5086482;28;20204;-75
2023/09/04 03:30:42;;;;;;;4.57;3.30;;;;;;;19.26;60.92;98390.44;5051447;28;20175;-73
2023/09/04 03:33:07;;;;;;;3.97;3.67;;;;;;;19.24;61.36;98398.59;5077776;28;20230;-73
2023/09/04 03:35:33;;;;;;;5.20;3.40;;;;;;;19.21;61.30;98383.03;5077414;28;20792;-74
2023/09/04 03:37:58;;;;;;;4.27;3.80;;;;;;;19.23;61.22;98390.81;5072408;28;20743;-75
2023/09/04 03:40:25;;;;;;;5.73;4.00;;;;;;;19.19;61.28;98388.50;5060419;28;20269;-74
2023/09/04 03:42:51;;;;;;;5.97;3.30;;;;;;;19.21;61.05;98392.81;5088873;28;20256;-75
2023/09/04 03:45:17;;;;;;;3.80;3.50;;;;;;;19.16;60.96;98391.50;5082095;28;20848;-74
2023/09/04 03:47:44;;;;;;;4.00;3.60;;;;;;;19.12;61.20;98400.00;5084037;28;20404;-74
2023/09/04 03:50:11;;;;;;;6.60;3.33;;;;;;;19.10;60.99;98399.34;5054826;28;20177;-73
2023/09/04 03:52:38;;;;;;;7.53;3.40;;;;;;;19.06;61.35;98406.06;5080630;28;20437;-73
2023/09/04 03:55:04;;;;;;;4.80;3.83;;;;;;;19.08;61.34;98404.06;5079385;28;20432;-75
2023/09/04 03:57:30;;;;;;;7.30;4.43;;;;;;;19.07;61.24;98407.72;5079143;28;20792;-71
2023/09/04 03:59:58;;;;;;;5.80;3.80;;;;;;;19.06;61.08;98406.06;5084501;28;20498;-75
2023/09/04 04:02:23;;;;;;;3.33;3.03;;;;;;;19.06;61.15;98409.53;5076901;28;20197;-74
2023/09/04 04:04:52;;;;;;;4.13;3.73;;;;;;;19.01;60.95;98409.25;5077313;28;20440;-73
2023/09/04 04:07:18;;;;;;;4.20;3.27;;;;;;;18.89;61.62;98403.47;5080797;28;20175;-74
2023/09/04 04:09:44;;;;;;;4.30;3.90;;;;;;;18.83;61.51;98410.31;5077173;28;20426;-73
2023/09/04 04:12:10;;;;;;;6.57;4.13;;;;;;;18.86;61.54;98406.47;5087021;28;20305;-75
2023/09/04 04:14:36;;;;;;;6.87;3.87;;;;;;;18.87;61.42;98403.66;5059790;28;20448;-75
2023/09/04 04:17:01;;;;;;;4.93;3.70;;;;;;;18.81;61.70;98414.97;5071707;28;20448;-74
2023/09/04 04:19:27;;;;;;;5.97;3.37;;;;;;;18.85;61.46;98413.63;5074586;28;20193;-74
2023/09/04 04:21:53;;;;;;;10.33;3.80;;;;;;;18.83;61.34;98420.13;5087074;28;20526;-74
2023/09/04 04:24:19;;;;;;;4.30;3.80;;;;;;;18.83;61.37;98428.91;5055651;28;20447;-76
2023/09/04 04:26:45;;;;;;;4.33;3.93;;;;;;;18.80;61.26;98428.44;5080309;28;20183;-76
2023/09/04 04:29:10;;;;;;;4.70;3.60;;;;;;;18.78;61.20;98433.91;5081145;28;20456;-76
2023/09/04 04:31:36;;;;;;;3.63;2.97;;;;;;;18.76;61.46;98427.97;5083037;28;20301;-73
2023/09/04 04:34:02;;;;;;;5.00;3.17;;;;;;;18.75;61.41;98428.97;5086522;28;20289;-75
2023/09/04 04:36:27;;;;;;;3.60;3.30;;;;;;;18.73;61.31;98437.09;5082420;28;20209;-73
2023/09/04 04:38:53;;;;;;;3.60;3.10;;;;;;;18.70;61.38;98433.97;5080079;28;20205;-73
2023/09/04 04:41:18;;;;;;;5.60;3.33;;;;;;;18.68;61.39;98435.97;5084700;28;20177;-74
2023/09/04 04:43:44;;;;;;;11.73;3.60;;;;;;;18.68;61.51;98439.47;5066568;28;20755;-75
2023/09/04 04:46:14;;;;;;;9.97;4.13;;;;;;;18.68;61.31;98436.81;5078985;28;20277;-75
2023/09/04 04:48:39;;;;;;;4.47;3.27;;;;;;;18.68;61.52;98435.97;5083028;28;20223;-75
2023/09/04 04:51:05;;;;;;;3.73;3.43;;;;;;;18.63;61.31;98428.53;5089109;28;20519;-74
2023/09/04 04:53:30;;;;;;;6.30;3.53;;;;;;;18.63;61.55;98422.41;5071483;28;20201;-74
2023/09/04 04:55:56;;;;;;;7.03;3.73;;;;;;;18.63;61.48;98433.03;5076410;28;20534;-78
2023/09/04 04:58:21;;;;;;;8.27;3.53;;;;;;;18.63;61.47;98433.03;5081043;28;20206;-74
2023/09/04 05:00:48;;;;;;;4.53;3.80;;;;;;;18.60;61.56;98436.00;5084975;28;20826;-72
2023/09/04 05:03:14;;;;;;;5.80;3.83;;;;;;;18.60;61.50;98433.34;5086035;28;20186;-74
2023/09/04 05:05:46;;;;;;;6.80;3.77;;;;;;;18.57;61.60;98434.53;5068860;28;20451;-74
2023/09/04 05:08:12;;;;;;;6.83;3.83;;;;;;;18.56;61.77;98430.22;5080917;28;20420;-74
2023/09/04 05:10:37;;;;;;;6.00;4.23;;;;;;;18.64;61.74;98422.22;5076900;28;20433;-74
2023/09/04 05:13:03;;;;;;;7.97;4.50;;;;;;;18.65;61.84;98426.53;5057790;28;20756;-73
2023/09/04 05:15:28;;;;;;;11.13;4.90;;;;;;;18.65;61.67;98431.84;5085332;28;20591;-74
2023/09/04 05:17:54;;;;;;;4.90;4.30;;;;;;;18.65;61.78;98433.69;5083378;28;20729;-73
2023/09/04 05:20:19;;;;;;;9.40;5.17;;;;;;;18.69;61.84;98427.00;5078466;28;20181;-74
2023/09/04 05:22:45;;;;;;;7.67;5.40;;;;;;;18.68;62.10;98425.34;5089238;28;20288;-73
2023/09/04 05:25:11;;;;;;;4.83;3.57;;;;;;;18.68;61.73;98422.69;5078328;28;20258;-73
2023/09/04 05:27:37;;;;;;;4.70;4.30;;;;;;;18.69;62.07;98427.00;5085606;28;20181;-73
2023/09/04 05:30:03;;;;;;;5.97;4.60;;;;;;;18.70;62.25;98426.00;5064914;28;20438;-73
2023/09/04 05:32:28;;;;;;;6.40;5.57;;;;;;;18.72;62.46;98416.03;5088656;28;20272;-72
2023/09/04 05:34:54;;;;;;;11.67;6.20;;;;;;;18.77;62.80;98413.69;5061337;28;20587;-73
2023/09/04 05:37:20;;;;;;;8.93;4.87;;;;;;;18.81;62.55;98416.81;5079747;28;20224;-75
2023/09/04 05:39:46;;;;;;;5.50;4.27;;;;;;;18.83;62.25;98415.63;5080081;28;20567;-76
2023/09/04 05:42:11;;;;;;;13.57;4.80;;;;;;;18.90;62.30;98407.78;5086516;28;20424;-73
2023/09/04 05:44:36;;;;;;;5.67;4.73;;;;;;;18.96;62.27;98407.13;5082235;28;20220;-74
2023/09/04 05:47:03;;;;;;;7.70;6.00;;;;;;;19.05;62.57;98410.53;5087646;28;20182;-74
2023/09/04 05:49:28;;;;;;;11.47;6.37;;;;;;;19.15;62.64;98405.78;5077500;28;20182;-74
2023/09/04 05:51:54;;;;;;;10.27;5.20;;;;;;;19.25;62.70;98415.38;5082434;28;20431;-74
2023/09/04 05:54:20;;;;;;;7.87;4.10;;;;;;;19.31;62.44;98406.66;5085518;28;20212;-74
2023/09/04 05:56:45;;;;;;;5.60;5.03;;;;;;;19.42;62.38;98406.22;5076891;28;20213;-73
2023/09/04 05:59:14;;;;;;;8.23;5.37;;;;;;;19.63;62.47;98402.06;5081516;28;20340;-74
2023/09/04 06:01:39;;;;;;;9.00;5.07;;;;;;;19.80;62.06;98405.38;5083141;28;20272;-74
2023/09/04 06:04:05;;;;;;;7.10;5.60;;;;;;;20.01;62.36;98404.69;5086829;28;20448;-78
2023/09/04 06:06:30;;;;;;;6.40;4.90;;;;;;;20.20;61.75;98402.47;5088926;28;20184;-74
2023/09/04 06:08:56;;;;;;;6.63;5.50;;;;;;;20.39;61.89;98407.22;5071001;28;20224;-74
2023/09/04 06:11:21;;;;;;;5.93;5.20;;;;;;;20.58;61.55;98409.47;5072298;28;20182;-74
2023/09/04 06:13:48;;;;;;;8.27;5.47;;;;;;;20.77;60.72;98424.06;5087483;28;20217;-73
2023/09/04 06:16:17;;;;;;;6.30;5.13;;;;;;;20.93;60.44;98413.16;5074437;28;20209;-74
2023/09/04 06:18:42;;;;;;;5.10;4.37;;;;;;;21.10;59.95;98418.25;5088756;28;20424;-73
2023/09/04 06:21:07;;;;;;;4.97;3.83;;;;;;;21.21;58.93;98415.06;5079947;28;20837;-72
2023/09/04 06:23:33;;;;;;;5.30;3.87;;;;;;;21.28;58.88;98415.13;5064616;28;20296;-73
2023/09/04 06:26:02;;;;;;;5.67;3.90;;;;;;;21.45;59.05;98413.84;5075081;28;20231;-74
2023/09/04 06:28:28;;;;;;;6.80;3.67;;;;;;;21.59;58.74;98406.78;5083567;28;20170;-74
2023/09/04 06:30:55;;;;;;;7.37;3.80;;;;;;;21.77;58.41;98397.47;5082124;28;20431;-75
2023/09/04 06:33:23;;;;;;;4.77;4.30;;;;;;;21.90;58.20;98402.88;5075883;28;20990;-74
2023/09/04 06:35:48;;;;;;;5.27;4.27;;;;;;;22.09;58.00;98397.84;5087726;28;20938;-73
2023/09/04 06:38:14;;;;;;;5.03;3.43;;;;;;;22.23;57.60;98412.91;5086343;28;20451;-73
2023/09/04 06:40:40;;;;;;;5.40;3.97;;;;;;;22.34;57.29;98416.88;5061646;28;20189;-73
2023/09/04 06:43:05;;;;;;;5.63;3.87;;;;;;;22.44;56.95;98413.84;5080732;28;20482;-73
2023/09/04 06:45:30;;;;;;;6.50;4.00;;;;;;;22.57;57.38;98417.56;5069590;28;20188;-73
2023/09/04 06:47:56;;;;;;;4.40;4.10;;;;;;;22.66;56.22;98411.06;5062040;28;20182;-73
2023/09/04 06:50:21;;;;;;;4.80;3.93;;;;;;;22.72;55.98;98415.56;5077779;28;20706;-73
2023/09/04 06:52:47;;;;;;;6.80;5.10;;;;;;;22.84;56.13;98408.63;5080925;28;20557;-73
2023/09/04 06:55:12;;;;;;;3.80;3.50;;;;;;;22.98;55.62;98406.81;5087607;28;20212;-72
2023/09/04 06:57:38;;;;;;;7.00;4.13;;;;;;;23.08;55.77;98403.72;5079841;28;20682;-74
2023/09/04 07:00:08;;;;;;;6.17;4.30;;;;;;;23.23;55.22;98398.22;5091190;28;20209;-72
2023/09/04 07:02:35;;;;;;;7.77;4.07;;;;;;;23.40;54.86;98403.13;5090408;28;20182;-72
2023/09/04 07:05:01;;;;;;;5.67;4.40;;;;;;;23.50;53.78;98402.72;5071596;28;20516;-75
2023/09/04 07:07:26;;;;;;;4.20;3.90;;;;;;;23.64;53.51;98401.69;5085431;28;20870;-72
2023/09/04 07:09:51;;;;;;;7.47;4.20;;;;;;;23.80;52.23;98395.06;5090536;28;20189;-75
2023/09/04 07:12:17;;;;;;;4.40;4.00;;;;;;;23.94;50.69;98406.59;5065460;28;20208;-74
2023/09/04 07:14:42;;;;;;;5.30;4.80;;;;;;;23.96;49.32;98403.72;5080148;28;20201;-73
2023/09/04 07:17:08;;;;;;;4.53;4.13;;;;;;;24.07;48.93;98395.84;5089077;28;20344;-74
2023/09/04 07:19:33;;;;;;;4.50;4.10;;;;;;;24.10;47.59;98391.09;5074106;28;20265;-73
2023/09/04 07:21:59;;;;;;;4.87;4.47;;;;;;;24.22;46.91;98395.63;5071819;28;20273;-73
2023/09/04 07:24:24;;;;;;;6.00;4.83;;;;;;;24.32;46.79;98392.47;5070204;28;20285;-73
2023/09/04 07:26:49;;;;;;;5.27;4.73;;;;;;;24.44;46.76;98400.66;5072922;28;20609;-72
2023/09/04 07:29:17;;;;;;;5.80;4.33;;;;;;;24.59;45.75;98395.00;5078277;28;20178;-74
2023/09/04 07:31:42;;;;;;;5.00;4.60;;;;;;;24.64;45.68;98400.56;5086094;28;20254;-72
2023/09/04 07:34:08;;;;;;;6.17;3.90;;;;;;;24.74;45.42;98399.31;5091332;28;20447;-71
2023/09/04 07:36:33;;;;;;;4.40;4.00;;;;;;;24.85;44.71;98390.56;5087843;28;20198;-72
2023/09/04 07:38:58;;;;;;;3.87;3.50;;;;;;;24.94;43.94;98393.81;5088329;28;20264;-71
2023/09/04 07:41:25;;;;;;;4.00;3.70;;;;;;;25.11;43.89;98391.44;5089743;28;20247;-71
2023/09/04 07:43:51;;;;;;;7.60;4.50;;;;;;;25.27;44.57;98392.75;5083725;28;20198;-71
2023/09/04 07:46:17;;;;;;;4.00;3.70;;;;;;;25.39;43.72;98398.22;5090542;28;20412;-70
2023/09/04 07:48:42;;;;;;;4.73;4.07;;;;;;;25.56;43.66;98391.31;5082755;28;20427;-70
2023/09/04 07:51:08;;;;;;;3.60;3.30;;;;;;;25.77;43.24;98391.91;5082643;28;20182;-73
2023/09/04 07:53:34;;;;;;;4.10;3.70;;;;;;;25.91;42.78;98396.09;5090894;28;20646;-72
2023/09/04 07:55:59;;;;;;;4.73;4.27;;;;;;;26.09;42.67;98402.50;5090569;28;20213;-71
2023/09/04 07:58:25;;;;;;;4.07;3.77;;;;;;;26.28;42.75;98399.84;5081312;28;20214;-73
2023/09/04 08:00:51;;;;;;;8.23;3.23;;;;;;;26.48;41.65;98403.09;5065019;28;20768;-71
2023/09/04 08:03:17;;;;;;;4.43;3.30;;;;;;;26.53;41.30;98400.56;5086779;28;20201;-73
2023/09/04 08:05:43;;;;;;;4.27;3.57;;;;;;;26.60;41.25;98399.63;5082576;28;20428;-72
2023/09/04 08:08:10;;;;;;;3.67;3.37;;;;;;;26.62;41.00;98397.56;5062560;28;20420;-71
2023/09/04 08:10:40;;;;;;;4.03;3.63;;;;;;;26.77;41.33;98389.91;5087272;28;20420;-71
2023/09/04 08:13:23;;;;;;;4.17;3.53;;;;;;;26.96;41.33;98396.06;5062601;28;20440;-72
2023/09/04 08:15:49;;;;;;;6.03;3.80;;;;;;;27.17;40.39;98401.13;5074736;28;20417;-73
2023/09/04 08:18:14;;;;;;;3.63;3.33;;;;;;;27.32;39.96;98406.91;5085421;28;20550;-72
2023/09/04 08:20:40;;;;;;;12.63;3.83;;;;;;;27.51;40.33;98398.75;5079759;28;20594;-72
2023/09/04 08:23:09;;;;;;;4.87;3.50;;;;;;;27.73;39.67;98397.09;5062719;28;20174;-72
2023/09/04 08:25:35;;;;;;;6.50;3.73;;;;;;;27.84;39.29;98397.34;5088336;28;20287;-70
2023/09/04 08:28:02;;;;;;;3.30;3.10;;;;;;;28.01;38.71;98392.84;5087797;28;20430;-73
2023/09/04 08:30:28;;;;;;;4.33;3.93;;;;;;;28.13;38.50;98394.72;5083013;28;20440;-74
2023/09/04 08:32:53;;;;;;;3.83;3.53;;;;;;;28.15;38.29;98395.31;5087877;28;20439;-73
2023/09/04 08:35:19;;;;;;;3.37;3.17;;;;;;;28.36;38.08;98391.16;5077518;28;20240;-75
2023/09/04 08:37:44;;;;;;;4.30;3.33;;;;;;;28.49;38.07;98388.19;5085000;28;20210;-72
2023/09/04 08:40:10;;;;;;;3.80;3.50;;;;;;;28.69;37.81;98388.81;5089463;28;20192;-73
2023/09/04 08:42:38;;;;;;;5.40;3.60;;;;;;;28.82;36.67;98391.22;5088128;28;20184;-73
2023/09/04 08:45:06;;;;;;;4.60;3.93;;;;;;;28.91;36.59;98389.75;5084357;28;20606;-73
2023/09/04 08:47:32;;;;;;;7.60;3.00;;;;;;;29.09;36.16;98386.00;5071874;28;20440;-74
2023/09/04 08:50:00;;;;;;;3.43;3.20;;;;;;;29.12;35.78;98390.09;5087949;28;20420;-74
2023/09/04 08:52:26;;;;;;;5.23;3.50;;;;;;;29.18;35.45;98394.53;5078274;28;20423;-73
2023/09/04 08:54:52;;;;;;;4.00;3.03;;;;;;;29.16;35.46;98390.44;5077507;28;20818;-73
2023/09/04 08:57:18;;;;;;;3.20;2.90;;;;;;;29.33;35.66;98388.53;5084936;28;20202;-73
2023/09/04 08:59:43;;;;;;;6.70;3.37;;;;;;;29.42;35.37;98389.78;5058780;28;20432;-74
2023/09/04 09:02:14;;;;;;;3.17;2.90;;;;;;;29.54;34.99;98392.41;5090042;28;20803;-73
2023/09/04 09:04:40;;;;;;;4.73;4.23;;;;;;;29.53;34.40;98390.78;5080324;28;20208;-74
2023/09/04 09:07:06;;;;;;;7.23;3.27;;;;;;;29.50;34.49;98383.16;5043317;28;20417;-73
2023/09/04 09:09:32;;;;;;;3.53;3.13;;;;;;;29.67;34.98;98382.31;5069542;28;20177;-73
2023/09/04 09:11:57;;;;;;;3.27;3.07;;;;;;;29.67;34.58;98387.72;5075538;28;20642;-74
2023/09/04 09:14:29;;;;;;;3.43;3.13;;;;;;;29.76;33.94;98390.81;5087903;28;20482;-76
2023/09/04 09:17:14;;;;;;;3.37;3.07;;;;;;;29.84;34.21;98385.81;5078453;28;20254;-74
2023/09/04 09:19:40;;;;;;;3.30;2.93;;;;;;;29.95;34.02;98381.38;5086392;28;20431;-74
2023/09/04 09:22:24;;;;;;;3.37;3.07;;;;;;;29.78;34.07;98381.41;5078480;28;20872;-73
2023/09/04 09:24:51;;;;;;;2.93;2.63;;;;;;;29.91;33.97;98379.41;5082922;28;20488;-71
2023/09/04 09:27:18;;;;;;;3.10;2.90;;;;;;;30.00;34.48;98377.91;5079496;28;20423;-72
2023/09/04 09:29:45;;;;;;;3.10;2.80;;;;;;;30.21;33.78;98379.00;5079996;28;20961;-71
2023/09/04 09:32:10;;;;;;;3.27;2.97;;;;;;;30.36;33.30;98375.66;5088356;28;20485;-72
2023/09/04 09:34:36;;;;;;;3.13;2.80;;;;;;;30.44;32.77;98375.19;5066282;28;20735;-72
2023/09/04 09:37:01;;;;;;;3.57;3.27;;;;;;;30.50;32.94;98373.38;5074426;28;20203;-72
2023/09/04 09:39:29;;;;;;;4.30;2.93;;;;;;;30.59;32.77;98362.94;5080123;28;20178;-73
2023/09/04 09:41:55;;;;;;;10.40;3.10;;;;;;;30.82;32.79;98369.09;5075331;28;20264;-72
2023/09/04 09:44:20;;;;;;;3.50;2.50;;;;;;;30.95;32.33;98369.47;5076138;28;20968;-72
2023/09/04 09:46:57;;;;;;;4.30;3.10;;;;;;;31.15;32.00;98359.94;5083191;28;20285;-73
2023/09/04 09:49:23;;;;;;;4.23;2.70;;;;;;;31.41;31.86;98363.63;5053408;28;20995;-72
2023/09/04 09:51:53;;;;;;;3.10;2.90;;;;;;;31.53;31.80;98359.91;5073799;28;20439;-73
2023/09/04 09:54:44;;;;;;;3.00;2.80;;;;;;;31.27;30.88;98356.25;5080555;28;20448;-73
2023/09/04 09:57:11;;;;;;;3.60;3.30;;;;;;;31.34;31.23;98354.94;5071601;28;21202;-74
2023/09/04 09:59:38;;;;;;;3.27;3.03;;;;;;;31.40;30.36;98350.38;5072795;28;20428;-72
2023/09/04 10:02:05;;;;;;;2.90;2.70;;;;;;;31.57;30.57;98344.78;5081906;28;20531;-73
2023/09/04 10:04:31;;;;;;;3.33;2.50;;;;;;;31.55;29.41;98355.06;5080317;28;20996;-74
2023/09/04 10:06:59;;;;;;;3.10;2.90;;;;;;;31.71;29.77;98345.97;5075385;28;20762;-73
2023/09/04 10:09:27;;;;;;;2.60;2.40;;;;;;;31.94;30.66;98349.31;5073935;28;20432;-74
2023/09/04 10:12:03;;;;;;;4.50;2.67;;;;;;;32.06;30.44;98340.16;5071515;28;20423;-75
2023/09/04 10:14:37;;;;;;;5.57;2.77;;;;;;;32.23;30.02;98343.47;5063438;28;20479;-74
2023/09/04 10:17:03;;;;;;;4.23;2.90;;;;;;;32.20;29.66;98338.56;5086317;28;20547;-74
2023/09/04 10:19:30;;;;;;;3.33;2.90;;;;;;;32.32;29.17;98341.88;5065426;28;20440;-74
2023/09/04 10:22:01;;;;;;;6.53;3.10;;;;;;;32.39;29.82;98332.66;5067787;28;20482;-74
2023/09/04 10:25:04;;;;;;;3.03;2.50;;;;;;;32.38;29.20;98331.88;5055584;28;20440;-74
2023/09/04 10:27:32;;;;;;;3.00;2.80;;;;;;;32.57;29.06;98334.88;5067256;28;20421;-74
2023/09/04 10:30:05;;;;;;;3.87;3.20;;;;;;;32.62;28.52;98332.19;5077954;28;20423;-74
2023/09/04 10:32:31;;;;;;;3.10;2.90;;;;;;;32.67;29.27;98322.41;5072957;28;20435;-75
2023/09/04 10:34:57;;;;;;;2.90;2.70;;;;;;;32.85;28.14;98316.47;5059130;28;20477;-73
2023/09/04 10:37:25;;;;;;;8.23;2.70;;;;;;;32.89;28.95;98312.13;5058620;28;20224;-74
2023/09/04 10:39:51;;;;;;;3.50;3.10;;;;;;;32.84;28.39;98312.13;5049422;28;20197;-74
2023/09/04 10:42:16;;;;;;;3.03;2.83;;;;;;;32.90;27.56;98312.94;5075372;28;20424;-74
2023/09/04 10:44:47;;;;;;;3.77;2.73;;;;;;;32.95;27.59;98317.56;5077521;28;20670;-74
2023/09/04 10:47:13;;;;;;;4.20;2.87;;;;;;;32.92;26.72;98325.16;5056638;28;20193;-74
2023/09/04 10:49:39;;;;;;;4.27;3.87;;;;;;;32.95;27.63;98321.09;5029085;28;20440;-74
2023/09/04 10:52:05;;;;;;;2.73;2.53;;;;;;;32.94;27.51;98308.63;5058443;28;20431;-75
2023/09/04 10:54:30;;;;;;;2.20;2.10;;;;;;;33.05;27.30;98312.13;5083000;28;20636;-72
2023/09/04 10:57:00;;;;;;;2.77;2.53;;;;;;;33.03;26.86;98303.44;5061716;28;20464;-73
2023/09/04 10:59:27;;;;;;;3.20;2.90;;;;;;;32.89;25.80;98303.97;5053256;28;20190;-73
2023/09/04 11:01:53;;;;;;;3.13;2.93;;;;;;;32.90;27.72;98294.75;5057976;28;20507;-74
2023/09/04 11:04:32;;;;;;;3.63;2.53;;;;;;;33.10;26.59;98293.13;5051332;28;20460;-72
2023/09/04 11:07:15;;;;;;;4.77;2.30;;;;;;;33.22;26.01;98293.63;5027723;28;20186;-71
2023/09/04 11:09:41;;;;;;;3.20;2.90;;;;;;;33.29;25.83;98292.53;5073956;28;20425;-71
2023/09/04 11:12:11;;;;;;;2.97;2.77;;;;;;;33.44;26.20;98278.94;5074789;28;20912;-73
2023/09/04 11:14:44;;;;;;;2.67;2.47;;;;;;;33.54;25.98;98280.81;5059136;28;20432;-71
2023/09/04 11:17:10;;;;;;;3.57;3.27;;;;;;;33.64;25.69;98277.25;5054513;28;20470;-71
2023/09/04 11:19:36;;;;;;;2.90;2.67;;;;;;;33.70;25.47;98273.41;5054507;28;20523;-74
2023/09/04 11:22:01;;;;;;;2.73;2.53;;;;;;;33.74;25.44;98273.66;5074699;28;20193;-72
2023/09/04 11:24:29;;;;;;;3.10;2.30;;;;;;;33.64;24.77;98275.34;5071652;28;20479;-72
2023/09/04 11:26:55;;;;;;;2.50;2.30;;;;;;;33.64;24.43;98272.63;5058860;28;20197;-71
2023/09/04 11:29:20;;;;;;;2.57;2.37;;;;;;;33.77;24.62;98265.78;5059764;28;20429;-70
2023/09/04 11:31:46;;;;;;;3.30;2.53;;;;;;;33.84;25.36;98265.44;5074708;28;20235;-72